Florence, IN

8:54 PM EDT on October 24, 2014 (GMT -0400)
Riveraire | Change Station
CLOSE
Current Station
Personal Weather Station
Location: Vevay, IN
Elevation: 480 ft
Nearby Weather Stations

Elev 480 ft 38.73 °N, 85.09 °W | Updated 14 minutes ago

Partly Cloudy
Partly Cloudy
50.1 °F
Feels Like 50.1 °F
N
0.0
Wind Variable Wind from West

Today
High -- | Low -- °F
--% Chance of Precip.
Yesterday
High -- | Low -- °F
Precip. -- in
7:58 AM 6:48 PM
New Moon, 1% visible
Pressure 30.04 in
Visibility 10.0 miles
Clouds Mostly Cloudy 25000 ft
Dew Point 46 °F
Humidity 87%
Rainfall 0.00 in
Snow Depth Not available.
UV 0 out of 12
Pollen .90 out of 12
Air Quality Not available.
Flu Activity Not available.
METAR KCVG 242352Z 18004KT 10SM BKN250 11/05 A3004 RMK AO2 SLP170 T01110050 10194 20111 55000

More Conditions Fewer Conditions

Pressure 30.04 in
Visibility 10.0 miles
Clouds Mostly Cloudy 25000 ft
Dew Point 46 °F
Humidity 87%
Rainfall 0.00 in
Snow Depth Not available.
UV 0 out of 12
Pollen .90 out of 12
Air Quality Not available.
Flu Activity Not available.
METAR KCVG 242352Z 18004KT 10SM BKN250 11/05 A3004 RMK AO2 SLP170 T01110050 10194 20111 55000

More Conditions Fewer Conditions

10-Day Weather Forecast

Almanac

Astronomy

Oct. 24, 2014 Rise Set
Actual Time 7:58 AM EDT 6:48 PM EDT
Civil Twilight 7:31 AM EDT 7:16 PM EDT
Nautical Twilight 6:59 AM EDT 7:47 PM EDT
Astronomical Twilight 6:29 AM EDT 8:18 PM EDT
Moon 8:36 AM EDT (10/24) 7:28 PM EDT (10/24)
Length of Visible Light 11h 45m
Length of Day
10h 50m
Tomorrow will be 2m 20s shorter.
New Moon, 1% of the Moon is Illuminated
Today
New Moon
Oct 30
First Quarter
Nov 6
Full
Nov 14
Last Quarter
Nov 22
New

Today's Extremes

State Highs State Lows

Community

WunderPhotos

Upload Photos

1,764,735 photos uploaded!

WunderBlogs® & News

Nearby

Snow Depth

Station Depth Elevation
No new snow has been reported.

Earthquake Activity

City Distance Mag. Time & Date
No recent earthquake activity has been reported nearby.
Minimum magnitude displayed is 2.5.

Coastal Water Temperatures

Place Temperature
No Stations Reporting

Nearby Weather Stations